Time;durP1;ratioP1;P1;durP2;ratioP2;P2;SDS_P1;SDS_P2;PMS_P1;PMS_P2;Temp;Humidity;BMP_temperature;BMP_pressure;BME280_temperature;BME280_humidity;BME280_pressure;Samples;Min_cycle;Max_cycle;Signal;HPM_P1;HPM_P2
2021/12/16 00:01:45;;;;;;;;;;;8.90;99.90;;;;;;4963333;28;19924;-88
2021/12/16 00:06:53;;;;;;;;;;;9.00;99.90;;;;;;4963114;28;20578;-87
2021/12/16 00:09:10;;;;;;;;;;;8.90;99.90;;;;;;4963290;28;20858;-87
2021/12/16 00:33:13;;;;;;;;;;;9.00;99.90;;;;;;4962859;28;19936;-88
2021/12/16 00:35:39;;;;;;;;;;;9.00;99.90;;;;;;4941142;28;20391;-87
2021/12/16 00:38:05;;;;;;;;;;;9.00;99.90;;;;;;4941933;28;19934;-88
2021/12/16 00:40:30;;;;;;;;;;;8.90;99.90;;;;;;4957481;28;19931;-87
2021/12/16 00:43:11;;;;;;;;;;;8.90;99.90;;;;;;4941668;28;20599;-88
2021/12/16 00:46:10;;;;;;;;;;;8.90;99.90;;;;;;4944133;28;19969;-88
2021/12/16 00:48:26;;;;;;;;;;;9.00;99.90;;;;;;4961127;28;20548;-86
2021/12/16 00:56:09;;;;;;;;;;;9.00;99.90;;;;;;4961281;28;20016;-87
2021/12/16 00:58:41;;;;;;;;;;;8.90;99.90;;;;;;4942277;28;20020;-88
2021/12/16 01:01:16;;;;;;;;;;;9.00;99.90;;;;;;4960828;28;19928;-88
2021/12/16 01:04:56;;;;;;;;;;;8.90;99.90;;;;;;4941898;28;20024;-85
2021/12/16 01:06:44;;;;;;;;;;;8.90;99.90;;;;;;4955572;28;20386;-87
2021/12/16 01:09:38;;;;;;;;;;;8.90;99.90;;;;;;4960337;28;19918;-87
2021/12/16 01:34:20;;;;;;;;;;;8.90;99.90;;;;;;4962369;28;20305;-88
2021/12/16 01:37:09;;;;;;;;;;;8.90;99.90;;;;;;4959187;28;19924;-87
2021/12/16 01:42:25;;;;;;;;;;;8.90;99.90;;;;;;4961202;28;20278;-86
2021/12/16 01:50:31;;;;;;;;;;;8.90;99.90;;;;;;4927166;28;20626;-87
2021/12/16 01:56:10;;;;;;;;;;;8.80;99.90;;;;;;4961837;28;19973;-87
2021/12/16 01:58:35;;;;;;;;;;;8.80;99.90;;;;;;4960740;28;19926;-87
2021/12/16 02:03:43;;;;;;;;;;;8.80;99.90;;;;;;4962558;28;19919;-86
2021/12/16 02:06:36;;;;;;;;;;;8.80;99.90;;;;;;4941340;28;20005;-86
2021/12/16 02:08:56;;;;;;;;;;;8.80;99.90;;;;;;4960753;28;19918;-89
2021/12/16 02:35:59;;;;;;;;;;;8.70;99.90;;;;;;4960378;28;20017;-85
2021/12/16 02:38:28;;;;;;;;;;;8.70;99.90;;;;;;4962339;28;19922;-87
2021/12/16 02:40:54;;;;;;;;;;;8.70;99.90;;;;;;4947762;28;19918;-88
2021/12/16 02:43:54;;;;;;;;;;;8.70;99.90;;;;;;4943700;28;19926;-87
2021/12/16 02:48:39;;;;;;;;;;;8.70;99.90;;;;;;4962441;28;20005;-86
2021/12/16 02:51:13;;;;;;;;;;;8.70;99.90;;;;;;4934638;28;20024;-88
2021/12/16 02:53:43;;;;;;;;;;;8.60;99.90;;;;;;4959414;28;19922;-83
2021/12/16 02:56:08;;;;;;;;;;;8.70;99.90;;;;;;4942901;28;20021;-87
2021/12/16 02:58:36;;;;;;;;;;;8.70;99.90;;;;;;4942466;28;19918;-88
2021/12/16 03:01:13;;;;;;;;;;;8.60;99.90;;;;;;4959952;28;19937;-88
2021/12/16 03:03:39;;;;;;;;;;;8.60;99.90;;;;;;4961651;28;19918;-85
2021/12/16 03:06:06;;;;;;;;;;;8.70;99.90;;;;;;4950008;28;19922;-87
2021/12/16 03:08:32;;;;;;;;;;;8.70;99.90;;;;;;4942932;28;19918;-86
2021/12/16 03:13:38;;;;;;;;;;;8.60;99.90;;;;;;4963756;28;19977;-86
2021/12/16 03:16:14;;;;;;;;;;;8.60;99.90;;;;;;4964546;28;20033;-86
2021/12/16 03:19:05;;;;;;;;;;;8.60;99.90;;;;;;4946683;28;19922;-88
2021/12/16 03:21:36;;;;;;;;;;;8.60;99.90;;;;;;4946674;28;19945;-90
2021/12/16 03:27:27;;;;;;;;;;;8.70;99.90;;;;;;4943862;28;20391;-88
2021/12/16 03:37:55;;;;;;;;;;;8.60;99.90;;;;;;4962298;28;20349;-87
2021/12/16 03:40:21;;;;;;;;;;;8.60;99.90;;;;;;4945212;28;19992;-84
2021/12/16 03:42:53;;;;;;;;;;;8.60;99.90;;;;;;4962618;28;19929;-86
2021/12/16 03:48:16;;;;;;;;;;;8.70;99.90;;;;;;4963129;28;19996;-88
2021/12/16 03:50:41;;;;;;;;;;;8.70;99.90;;;;;;4942743;28;19918;-87
2021/12/16 03:53:07;;;;;;;;;;;8.70;99.90;;;;;;4945873;28;19930;-87
2021/12/16 03:55:34;;;;;;;;;;;8.70;99.90;;;;;;4944495;28;20585;-87
2021/12/16 03:57:59;;;;;;;;;;;8.70;99.90;;;;;;4945657;28;19923;-86
2021/12/16 04:00:27;;;;;;;;;;;8.70;99.90;;;;;;4961407;28;20411;-87
2021/12/16 04:02:53;;;;;;;;;;;8.70;99.90;;;;;;4945354;28;19915;-86
2021/12/16 04:05:19;;;;;;;;;;;8.80;99.90;;;;;;4942264;28;20154;-88
2021/12/16 04:07:45;;;;;;;;;;;8.70;99.90;;;;;;4945701;28;19941;-86
2021/12/16 04:10:13;;;;;;;;;;;8.70;99.90;;;;;;4948453;28;19918;-83
2021/12/16 04:12:38;;;;;;;;;;;8.80;99.90;;;;;;4948897;28;19918;-85
2021/12/16 04:15:05;;;;;;;;;;;8.80;99.90;;;;;;4944657;28;19918;-86
2021/12/16 04:17:31;;;;;;;;;;;8.80;99.90;;;;;;4945034;28;20546;-86
2021/12/16 04:19:56;;;;;;;;;;;8.80;99.90;;;;;;4945051;28;19926;-86
2021/12/16 04:22:31;;;;;;;;;;;8.80;99.90;;;;;;4940943;28;19918;-86
2021/12/16 04:24:58;;;;;;;;;;;8.80;99.90;;;;;;4939286;28;20294;-86
2021/12/16 04:27:24;;;;;;;;;;;8.80;99.90;;;;;;4962311;28;20001;-85
2021/12/16 04:29:50;;;;;;;;;;;8.80;99.90;;;;;;4944439;28;19922;-85
2021/12/16 04:32:16;;;;;;;;;;;8.80;99.90;;;;;;4963328;28;20548;-83
2021/12/16 04:34:42;;;;;;;;;;;8.80;99.90;;;;;;4942544;28;19926;-85
2021/12/16 04:37:07;;;;;;;;;;;8.70;99.90;;;;;;4943343;28;19921;-86
2021/12/16 04:39:33;;;;;;;;;;;8.80;99.90;;;;;;4942114;28;19961;-86
2021/12/16 04:41:59;;;;;;;;;;;8.80;99.90;;;;;;4959263;28;20024;-85
2021/12/16 04:44:26;;;;;;;;;;;8.80;99.90;;;;;;4943417;28;19944;-87
2021/12/16 04:46:52;;;;;;;;;;;8.80;99.90;;;;;;4946678;28;20626;-86
2021/12/16 04:49:18;;;;;;;;;;;8.80;99.90;;;;;;4962588;28;20389;-85
2021/12/16 04:51:48;;;;;;;;;;;8.70;99.90;;;;;;4944075;28;20033;-86
2021/12/16 04:54:17;;;;;;;;;;;8.70;99.90;;;;;;4961833;28;19960;-85
2021/12/16 04:56:42;;;;;;;;;;;8.70;99.90;;;;;;4962640;28;19930;-86
2021/12/16 04:59:10;;;;;;;;;;;8.60;99.90;;;;;;4951011;28;19972;-87
2021/12/16 05:01:40;;;;;;;;;;;8.60;99.90;;;;;;4940859;28;19945;-84
2021/12/16 05:04:06;;;;;;;;;;;8.60;99.90;;;;;;4941152;28;19949;-86
2021/12/16 05:06:32;;;;;;;;;;;8.60;99.90;;;;;;4940032;28;20012;-86
2021/12/16 05:08:58;;;;;;;;;;;8.70;99.90;;;;;;4944216;28;20712;-86
2021/12/16 05:11:25;;;;;;;;;;;8.60;99.90;;;;;;4944322;28;19946;-86
2021/12/16 05:13:51;;;;;;;;;;;8.70;99.90;;;;;;4962059;28;19965;-87
2021/12/16 05:16:16;;;;;;;;;;;8.70;99.90;;;;;;4945484;28;19989;-84
2021/12/16 05:18:42;;;;;;;;;;;8.60;99.90;;;;;;4959969;28;19926;-86
2021/12/16 05:21:13;;;;;;;;;;;8.60;99.90;;;;;;4942884;28;20298;-86
2021/12/16 05:26:22;;;;;;;;;;;8.50;99.90;;;;;;4961911;28;20876;-87
2021/12/16 05:28:50;;;;;;;;;;;8.50;99.90;;;;;;4962134;28;19926;-85
2021/12/16 05:31:16;;;;;;;;;;;8.50;99.90;;;;;;4945232;28;19915;-86
2021/12/16 05:33:42;;;;;;;;;;;8.40;99.90;;;;;;4959871;28;19949;-85
2021/12/16 05:36:08;;;;;;;;;;;8.30;99.90;;;;;;4961448;28;19918;-85
2021/12/16 05:38:33;;;;;;;;;;;8.30;99.90;;;;;;4940191;28;19983;-85
2021/12/16 05:40:59;;;;;;;;;;;8.20;99.90;;;;;;4941108;28;19926;-85
2021/12/16 05:43:26;;;;;;;;;;;8.20;99.90;;;;;;4948570;28;20358;-85
2021/12/16 05:45:55;;;;;;;;;;;8.10;99.90;;;;;;4942323;28;19925;-85
2021/12/16 05:48:23;;;;;;;;;;;8.10;99.90;;;;;;4945001;28;19926;-85
2021/12/16 05:50:50;;;;;;;;;;;8.10;99.90;;;;;;4962041;28;19918;-85
2021/12/16 05:53:16;;;;;;;;;;;8.00;99.90;;;;;;4945377;28;19945;-84
2021/12/16 05:55:42;;;;;;;;;;;8.00;99.90;;;;;;4944802;28;19926;-85
2021/12/16 05:58:09;;;;;;;;;;;8.00;99.90;;;;;;4961003;28;20441;-85
2021/12/16 06:00:39;;;;;;;;;;;8.00;99.90;;;;;;4954700;28;19930;-85
2021/12/16 06:03:05;;;;;;;;;;;8.00;99.90;;;;;;4924298;28;19990;-85
2021/12/16 06:05:31;;;;;;;;;;;8.00;99.90;;;;;;4940552;28;19921;-85
2021/12/16 06:07:57;;;;;;;;;;;8.00;99.90;;;;;;4940415;28;20021;-85
2021/12/16 06:13:08;;;;;;;;;;;7.90;99.90;;;;;;4920023;28;19918;-85
2021/12/16 06:26:34;;;;;;;;;;;7.90;99.90;;;;;;4960019;28;19929;-86
2021/12/16 06:29:00;;;;;;;;;;;7.90;99.90;;;;;;4942462;28;20013;-87
2021/12/16 06:31:25;;;;;;;;;;;7.90;99.90;;;;;;4930189;28;19914;-85
2021/12/16 06:33:51;;;;;;;;;;;7.90;99.90;;;;;;4959752;28;19926;-86
2021/12/16 06:36:17;;;;;;;;;;;7.90;99.90;;;;;;4955699;28;19988;-85
2021/12/16 06:38:42;;;;;;;;;;;7.90;99.90;;;;;;4940056;28;20624;-86
2021/12/16 06:41:08;;;;;;;;;;;7.90;99.90;;;;;;4941808;28;19918;-87
2021/12/16 06:43:35;;;;;;;;;;;7.90;99.90;;;;;;4944104;28;19922;-86
2021/12/16 06:46:08;;;;;;;;;;;7.90;99.90;;;;;;4947938;28;19922;-86
2021/12/16 06:48:36;;;;;;;;;;;7.90;99.90;;;;;;4943396;28;20804;-85
2021/12/16 06:51:11;;;;;;;;;;;7.90;99.90;;;;;;4963955;28;20378;-86
2021/12/16 06:54:01;;;;;;;;;;;8.00;99.90;;;;;;4945652;28;20293;-86
2021/12/16 06:56:34;;;;;;;;;;;7.90;99.90;;;;;;4962183;28;20445;-83
2021/12/16 06:59:20;;;;;;;;;;;7.90;99.90;;;;;;4945217;28;19937;-83
2021/12/16 07:01:59;;;;;;;;;;;7.90;99.90;;;;;;4941975;28;19929;-83
2021/12/16 07:04:25;;;;;;;;;;;8.00;99.90;;;;;;4961967;28;20410;-82
2021/12/16 07:06:51;;;;;;;;;;;8.00;99.90;;;;;;4946876;28;20041;-83
2021/12/16 07:09:17;;;;;;;;;;;8.00;99.90;;;;;;4961557;28;19926;-83
2021/12/16 07:11:44;;;;;;;;;;;8.00;99.90;;;;;;4945807;28;19976;-83
2021/12/16 07:14:15;;;;;;;;;;;8.20;99.90;;;;;;4964937;28;19924;-83
2021/12/16 07:16:45;;;;;;;;;;;8.10;99.90;;;;;;4959873;28;20562;-83
2021/12/16 07:19:10;;;;;;;;;;;8.00;99.90;;;;;;4946802;28;20005;-83
2021/12/16 07:21:40;;;;;;;;;;;8.10;99.90;;;;;;4947402;28;20506;-85
2021/12/16 07:24:06;;;;;;;;;;;8.10;99.90;;;;;;4943859;28;19926;-85
2021/12/16 07:26:32;;;;;;;;;;;8.10;99.90;;;;;;4944162;28;19918;-85
2021/12/16 07:28:57;;;;;;;;;;;8.10;99.90;;;;;;4946802;28;19925;-87
2021/12/16 07:31:23;;;;;;;;;;;8.10;99.90;;;;;;4949361;28;20218;-86
2021/12/16 07:33:48;;;;;;;;;;;8.30;99.90;;;;;;4947712;28;21109;-86
2021/12/16 07:36:18;;;;;;;;;;;8.20;99.90;;;;;;4945388;28;19918;-86
2021/12/16 07:38:44;;;;;;;;;;;8.20;99.90;;;;;;4948201;28;20397;-86
2021/12/16 07:41:10;;;;;;;;;;;8.20;99.90;;;;;;4947911;28;20377;-85
2021/12/16 07:43:55;;;;;;;;;;;8.20;99.90;;;;;;4945428;28;19922;-87
2021/12/16 07:46:21;;;;;;;;;;;8.20;99.90;;;;;;4951252;28;19980;-86
2021/12/16 07:48:46;;;;;;;;;;;8.10;99.90;;;;;;4965723;28;19922;-88
2021/12/16 07:51:11;;;;;;;;;;;8.10;99.90;;;;;;4946968;28;19977;-85
2021/12/16 07:53:37;;;;;;;;;;;8.10;99.90;;;;;;4948166;28;20543;-85
2021/12/16 07:56:03;;;;;;;;;;;8.10;99.90;;;;;;4946083;28;19929;-86
2021/12/16 07:58:29;;;;;;;;;;;8.10;99.90;;;;;;4946497;28;19915;-87
2021/12/16 08:00:57;;;;;;;;;;;8.10;99.90;;;;;;4942484;28;19925;-85
2021/12/16 08:03:25;;;;;;;;;;;8.10;99.90;;;;;;4944203;28;19918;-87
2021/12/16 08:05:55;;;;;;;;;;;8.10;99.90;;;;;;4943764;28;19949;-87
2021/12/16 08:08:21;;;;;;;;;;;8.10;99.90;;;;;;4948009;28;19918;-87
2021/12/16 08:10:47;;;;;;;;;;;8.10;99.90;;;;;;4943979;28;19926;-87
2021/12/16 08:13:13;;;;;;;;;;;8.20;99.90;;;;;;4963642;28;19922;-85
2021/12/16 08:15:39;;;;;;;;;;;8.10;99.90;;;;;;4959901;28;21044;-86
2021/12/16 08:18:05;;;;;;;;;;;8.20;99.90;;;;;;4946382;28;19922;-87
2021/12/16 08:20:31;;;;;;;;;;;8.20;99.90;;;;;;4945566;28;20300;-88
2021/12/16 08:22:57;;;;;;;;;;;8.20;99.90;;;;;;4943236;28;20401;-85
2021/12/16 08:25:23;;;;;;;;;;;8.20;99.90;;;;;;4962056;28;19918;-87
2021/12/16 08:27:49;;;;;;;;;;;8.30;99.90;;;;;;4943886;28;19923;-86
2021/12/16 08:30:16;;;;;;;;;;;8.30;99.90;;;;;;4963131;28;19930;-87
2021/12/16 08:32:43;;;;;;;;;;;8.30;99.90;;;;;;4965073;28;19930;-85
2021/12/16 08:35:09;;;;;;;;;;;8.20;99.90;;;;;;4963605;28;20381;-86
2021/12/16 08:37:35;;;;;;;;;;;8.20;99.90;;;;;;4963223;28;19925;-87
2021/12/16 08:40:03;;;;;;;;;;;8.30;99.90;;;;;;4942358;28;19930;-86
2021/12/16 08:42:29;;;;;;;;;;;8.30;99.90;;;;;;4963161;28;19993;-86
2021/12/16 08:44:54;;;;;;;;;;;8.30;99.90;;;;;;4964731;28;20414;-87
2021/12/16 08:47:20;;;;;;;;;;;8.30;99.90;;;;;;4942631;28;19915;-86
2021/12/16 08:49:46;;;;;;;;;;;8.30;99.90;;;;;;4944737;28;20001;-87
2021/12/16 08:52:14;;;;;;;;;;;8.30;99.90;;;;;;4961033;28;19922;-86
2021/12/16 08:54:39;;;;;;;;;;;8.30;99.90;;;;;;4945340;28;20001;-87
2021/12/16 08:57:05;;;;;;;;;;;8.30;99.90;;;;;;4962663;28;20009;-86
2021/12/16 08:59:31;;;;;;;;;;;8.30;99.90;;;;;;4943129;28;20285;-86
2021/12/16 09:01:58;;;;;;;;;;;8.40;99.90;;;;;;4944514;28;19922;-86
2021/12/16 09:04:24;;;;;;;;;;;8.30;99.90;;;;;;4945993;28;20382;-88
2021/12/16 09:06:51;;;;;;;;;;;8.40;99.90;;;;;;4961945;28;20390;-87
2021/12/16 09:09:17;;;;;;;;;;;8.40;99.90;;;;;;4963821;28;19928;-86
2021/12/16 09:12:07;;;;;;;;;;;8.40;99.90;;;;;;4963903;28;20565;-87
2021/12/16 09:14:31;;;;;;;;;;;8.40;99.90;;;;;;4964747;28;19933;-86
2021/12/16 09:16:57;;;;;;;;;;;8.40;99.90;;;;;;4964608;28;19926;-87
2021/12/16 09:19:23;;;;;;;;;;;8.80;99.90;;;;;;4964592;28;19926;-87
2021/12/16 09:21:56;;;;;;;;;;;8.90;99.90;;;;;;4937406;28;19924;-86
2021/12/16 09:24:22;;;;;;;;;;;9.00;99.90;;;;;;4962191;28;20422;-86
2021/12/16 09:26:48;;;;;;;;;;;9.00;99.90;;;;;;4961122;28;20068;-85
2021/12/16 09:29:13;;;;;;;;;;;8.90;99.90;;;;;;4942560;28;19925;-86
2021/12/16 09:31:39;;;;;;;;;;;8.80;99.90;;;;;;4963525;28;19925;-86
2021/12/16 09:34:07;;;;;;;;;;;8.70;99.90;;;;;;4945210;28;19926;-86
2021/12/16 09:36:35;;;;;;;;;;;8.60;99.90;;;;;;4942035;28;19934;-86
2021/12/16 09:39:01;;;;;;;;;;;8.60;99.90;;;;;;4945885;28;20378;-86
2021/12/16 09:41:27;;;;;;;;;;;8.60;99.90;;;;;;4944907;28;19922;-86
2021/12/16 09:43:54;;;;;;;;;;;8.60;99.90;;;;;;4945716;28;19929;-86
2021/12/16 09:46:21;;;;;;;;;;;8.60;99.90;;;;;;4935700;28;19918;-87
2021/12/16 09:48:47;;;;;;;;;;;8.60;99.90;;;;;;4941072;28;19918;-90
2021/12/16 09:51:16;;;;;;;;;;;8.60;99.90;;;;;;4941748;28;20465;-86
2021/12/16 09:53:43;;;;;;;;;;;8.60;99.90;;;;;;4955185;28;19922;-88
2021/12/16 09:56:09;;;;;;;;;;;8.60;99.90;;;;;;4961340;28;19981;-85
2021/12/16 09:58:37;;;;;;;;;;;8.60;99.90;;;;;;4945484;28;19922;-85
2021/12/16 10:01:03;;;;;;;;;;;8.60;99.90;;;;;;4960389;28;19915;-85
2021/12/16 10:03:29;;;;;;;;;;;8.60;99.90;;;;;;4961716;28;20389;-86
2021/12/16 10:05:55;;;;;;;;;;;8.60;99.90;;;;;;4926738;28;20001;-88
2021/12/16 10:08:21;;;;;;;;;;;8.50;99.90;;;;;;4929796;28;19925;-87
2021/12/16 10:10:46;;;;;;;;;;;8.60;99.90;;;;;;4944491;28;19922;-86
2021/12/16 10:13:19;;;;;;;;;;;8.60;99.90;;;;;;4961476;28;19919;-87
2021/12/16 10:18:12;;;;;;;;;;;8.60;99.90;;;;;;4963115;28;20046;-83
2021/12/16 10:20:41;;;;;;;;;;;8.60;99.90;;;;;;4961900;28;19918;-87
2021/12/16 10:23:12;;;;;;;;;;;8.60;99.90;;;;;;4945968;28;19927;-87
2021/12/16 10:25:40;;;;;;;;;;;8.60;99.90;;;;;;4962000;28;20508;-87
2021/12/16 10:28:14;;;;;;;;;;;8.60;99.90;;;;;;4944926;28;20442;-87
2021/12/16 10:31:04;;;;;;;;;;;9.10;99.90;;;;;;4959994;28;19918;-86
2021/12/16 10:33:37;;;;;;;;;;;9.10;99.90;;;;;;4932794;28;20390;-86
2021/12/16 10:36:17;;;;;;;;;;;8.90;99.90;;;;;;4961825;28;20417;-86
2021/12/16 10:38:43;;;;;;;;;;;9.00;99.90;;;;;;4943473;28;19961;-86
2021/12/16 10:41:10;;;;;;;;;;;9.20;99.90;;;;;;4961748;28;20001;-86
2021/12/16 10:43:40;;;;;;;;;;;9.30;99.90;;;;;;4963376;28;19950;-87
2021/12/16 10:46:08;;;;;;;;;;;9.20;99.90;;;;;;4945433;28;20402;-86
2021/12/16 10:48:39;;;;;;;;;;;9.00;99.90;;;;;;4936126;28;19988;-86
2021/12/16 10:51:07;;;;;;;;;;;9.00;99.90;;;;;;4939413;28;19919;-87
2021/12/16 10:53:45;;;;;;;;;;;8.90;99.90;;;;;;4953405;28;20431;-87
2021/12/16 10:56:10;;;;;;;;;;;8.90;99.90;;;;;;4971710;28;19914;-88
2021/12/16 10:58:48;;;;;;;;;;;8.90;99.90;;;;;;4966408;28;20442;-87
2021/12/16 11:01:32;;;;;;;;;;;8.90;99.90;;;;;;4949096;28;19914;-87
2021/12/16 11:03:58;;;;;;;;;;;8.90;99.90;;;;;;4947243;28;19940;-87
2021/12/16 11:06:38;;;;;;;;;;;8.90;99.90;;;;;;4948326;28;19922;-88
2021/12/16 11:09:22;;;;;;;;;;;9.00;99.90;;;;;;4951629;28;19937;-89
2021/12/16 12:13:01;;;;;;;0.90;0.50;;;10.00;99.90;;;;;;5116774;27;20418;-79
2021/12/16 12:15:27;;;;;;;1.38;0.65;;;10.20;99.90;;;;;;5098211;27;20112;-79
2021/12/16 12:17:55;;;;;;;1.33;0.70;;;10.00;99.90;;;;;;5084579;27;20111;-80
2021/12/16 12:20:41;;;;;;;2.70;0.90;;;10.00;99.90;;;;;;5083742;27;20036;-80
2021/12/16 12:23:07;;;;;;;2.10;1.00;;;10.00;99.90;;;;;;5080236;27;20391;-79
2021/12/16 12:25:33;;;;;;;1.40;0.73;;;10.00;99.90;;;;;;5080416;28;20032;-79
2021/12/16 12:28:01;;;;;;;4.50;1.13;;;10.10;99.90;;;;;;5115514;27;20400;-80
2021/12/16 12:30:27;;;;;;;2.95;1.10;;;10.10;99.90;;;;;;5071607;27;20029;-80
2021/12/16 12:32:53;;;;;;;1.25;0.35;;;10.00;99.90;;;;;;5093929;27;20112;-79
2021/12/16 12:35:27;;;;;;;1.40;0.52;;;9.90;99.90;;;;;;5113075;27;20144;-79
2021/12/16 12:37:58;;;;;;;1.45;0.68;;;10.00;99.90;;;;;;5081327;28;20429;-79
2021/12/16 12:40:32;;;;;;;2.47;0.70;;;9.90;99.90;;;;;;5071115;28;20025;-79
2021/12/16 12:42:59;;;;;;;1.73;0.77;;;9.90;99.90;;;;;;5097889;27;20077;-80
2021/12/16 12:45:29;;;;;;;2.30;0.80;;;10.00;99.90;;;;;;5078835;28;20024;-79
2021/12/16 12:47:59;;;;;;;2.00;0.80;;;9.90;99.90;;;;;;5085958;27;20021;-80
2021/12/16 12:50:28;;;;;;;2.85;0.90;;;10.00;99.90;;;;;;5072724;28;20417;-79
2021/12/16 12:53:00;;;;;;;1.75;0.60;;;10.00;99.90;;;;;;5075838;28;20414;-80
2021/12/16 12:55:33;;;;;;;1.50;0.75;;;9.90;99.90;;;;;;5074934;28;20028;-81
2021/12/16 12:58:10;;;;;;;0.90;0.50;;;9.90;99.90;;;;;;5077702;27;20048;-81
2021/12/16 13:00:40;;;;;;;1.05;0.43;;;9.80;99.90;;;;;;5078317;28;20036;-79
2021/12/16 13:03:13;;;;;;;0.93;0.40;;;9.80;99.90;;;;;;5083966;28;20070;-80
2021/12/16 13:05:40;;;;;;;1.67;0.82;;;9.70;99.90;;;;;;5082587;28;20124;-80
2021/12/16 13:08:11;;;;;;;0.65;0.40;;;9.70;99.90;;;;;;5082266;28;20024;-79
2021/12/16 13:10:42;;;;;;;0.65;0.30;;;9.70;99.90;;;;;;5069004;28;20032;-80
2021/12/16 13:15:57;;;;;;;0.75;0.32;;;9.60;99.90;;;;;;5074262;28;20060;-81
2021/12/16 13:27:05;;;;;;;0.75;0.55;;;9.40;99.90;;;;;;5066786;28;20138;-79
2021/12/16 13:29:54;;;;;;;1.10;0.50;;;9.30;99.90;;;;;;5065333;28;20035;-80
2021/12/16 13:32:27;;;;;;;3.40;0.50;;;9.30;99.90;;;;;;5064924;28;20045;-80
2021/12/16 13:35:35;;;;;;;3.20;1.00;;;9.30;99.90;;;;;;5066082;28;20475;-80
2021/12/16 13:37:56;;;;;;;1.27;0.52;;;9.30;99.90;;;;;;5065477;28;20031;-83
2021/12/16 13:40:23;;;;;;;1.88;0.75;;;9.30;99.90;;;;;;5057508;28;20503;-79
2021/12/16 13:43:03;;;;;;;0.82;0.30;;;9.20;99.90;;;;;;5066289;28;20040;-80
2021/12/16 13:45:43;;;;;;;0.82;0.20;;;9.20;99.90;;;;;;5081793;28;20054;-79
2021/12/16 13:49:00;;;;;;;0.75;0.45;;;9.20;99.90;;;;;;5064363;28;20043;-80
2021/12/16 14:01:07;;;;;;;1.17;0.47;;;9.10;99.90;;;;;;5064979;28;20709;-80
2021/12/16 14:03:11;;;;;;;0.22;0.20;;;9.10;99.90;;;;;;5064020;28;20059;-80
2021/12/16 14:08:43;;;;;;;0.50;0.30;;;9.00;99.90;;;;;;5066877;28;20040;-80
2021/12/16 14:25:36;;;;;;;0.98;0.40;;;8.80;99.90;;;;;;5065201;28;20457;-80
2021/12/16 14:42:06;;;;;;;1.65;0.85;;;8.50;99.90;;;;;;5061647;28;20119;-81
2021/12/16 14:47:41;;;;;;;0.68;0.32;;;8.40;99.90;;;;;;5064059;28;20025;-81
2021/12/16 14:50:03;;;;;;;0.98;0.40;;;8.40;99.90;;;;;;5056876;28;20039;-80
2021/12/16 14:52:32;;;;;;;1.90;0.80;;;8.30;99.90;;;;;;5062136;28;20028;-81
2021/12/16 14:55:07;;;;;;;0.52;0.30;;;8.30;99.90;;;;;;5061770;28;20068;-80
2021/12/16 14:57:42;;;;;;;1.05;0.38;;;8.20;99.90;;;;;;5060048;28;20023;-80
2021/12/16 15:00:16;;;;;;;1.80;1.13;;;8.20;99.90;;;;;;5054240;28;20365;-80
2021/12/16 15:02:45;;;;;;;1.70;0.70;;;8.20;99.90;;;;;;5053137;28;20062;-80
2021/12/16 15:05:21;;;;;;;1.67;0.73;;;8.10;99.90;;;;;;5063624;28;20449;-80
2021/12/16 15:07:49;;;;;;;0.95;0.40;;;8.20;99.90;;;;;;5054104;28;20032;-80
2021/12/16 15:10:16;;;;;;;1.35;0.63;;;8.10;99.90;;;;;;5059336;28;20052;-79
2021/12/16 15:12:54;;;;;;;0.60;0.40;;;8.10;99.90;;;;;;5063340;28;20067;-80
2021/12/16 15:15:35;;;;;;;1.15;0.50;;;8.10;99.90;;;;;;5063220;28;20368;-80
2021/12/16 15:37:41;;;;;;;0.82;0.40;;;7.60;99.90;;;;;;5064496;28;20288;-81
2021/12/16 15:40:31;;;;;;;1.27;0.65;;;7.50;99.90;;;;;;5055476;28;20033;-79
2021/12/16 15:42:56;;;;;;;;;;;7.50;99.90;;;;;;5045333;28;20029;-79
2021/12/16 15:45:28;;;;;;;0.68;0.38;;;7.30;99.90;;;;;;5043173;28;20433;-79
2021/12/16 15:48:20;;;;;;;2.80;0.65;;;7.30;99.90;;;;;;5065673;28;20071;-83
2021/12/16 15:51:01;;;;;;;2.95;0.80;;;7.80;99.90;;;;;;5076822;28;20090;-79
2021/12/16 15:53:43;;;;;;;1.83;0.40;;;8.50;99.90;;;;;;5060640;28;20031;-79
2021/12/16 15:56:17;;;;;;;1.42;0.60;;;8.70;99.90;;;;;;5051285;28;20032;-81
2021/12/16 15:58:47;;;;;;;1.42;0.70;;;8.00;99.90;;;;;;5055197;28;20122;-82
2021/12/16 16:01:21;;;;;;;1.02;0.30;;;7.70;99.90;;;;;;5067823;28;20043;-82
2021/12/16 16:03:49;;;;;;;1.13;0.55;;;7.60;99.90;;;;;;5064693;28;20032;-82
2021/12/16 16:06:17;;;;;;;0.98;0.68;;;7.50;99.90;;;;;;5063850;28;20475;-83
2021/12/16 16:08:48;;;;;;;1.08;0.60;;;7.40;99.90;;;;;;5061791;28;20059;-83
2021/12/16 16:11:18;;;;;;;0.65;0.30;;;7.30;99.90;;;;;;5065095;28;20036;-82
2021/12/16 16:13:50;;;;;;;2.72;0.68;;;7.20;99.90;;;;;;5055387;28;20029;-83
2021/12/16 16:16:18;;;;;;;1.13;0.50;;;7.20;99.90;;;;;;5059333;28;20017;-82
2021/12/16 16:19:00;;;;;;;2.67;1.20;;;7.20;99.90;;;;;;5059454;28;20503;-82
2021/12/16 16:21:29;;;;;;;1.58;0.43;;;7.10;99.90;;;;;;5063117;28;20029;-82
2021/12/16 16:23:59;;;;;;;3.75;0.38;;;7.00;99.90;;;;;;5067635;28;20025;-82
2021/12/16 16:26:27;;;;;;;2.58;0.65;;;6.90;99.90;;;;;;5067528;28;20479;-81
2021/12/16 16:29:09;;;;;;;1.52;0.60;;;6.90;99.90;;;;;;5068256;28;20082;-81
2021/12/16 16:31:36;;;;;;;1.08;0.40;;;6.90;99.90;;;;;;5066743;28;20041;-82
2021/12/16 16:34:09;;;;;;;2.00;1.10;;;7.00;99.90;;;;;;5047307;28;20064;-82
2021/12/16 16:36:42;;;;;;;1.20;0.60;;;6.90;99.90;;;;;;5054851;28;20033;-82
2021/12/16 16:39:10;;;;;;;1.05;0.47;;;6.80;99.90;;;;;;5063292;28;20082;-83
2021/12/16 16:41:44;;;;;;;;;;;6.80;99.90;;;;;;5067196;28;20519;-82
2021/12/16 16:44:14;;;;;;;0.57;0.30;;;6.90;99.90;;;;;;5059634;28;19908;-84
2021/12/16 16:46:53;;;;;;;0.60;0.40;;;6.80;99.90;;;;;;5051394;28;20386;-83
2021/12/16 16:49:26;;;;;;;3.20;1.00;;;6.80;99.90;;;;;;5068047;28;20150;-81
2021/12/16 16:51:56;;;;;;;1.30;0.70;;;6.80;99.90;;;;;;5065748;28;20110;-81
2021/12/16 16:54:28;;;;;;;0.85;0.60;;;6.70;99.90;;;;;;5067366;28;20495;-81
2021/12/16 16:57:11;;;;;;;2.10;0.75;;;7.20;99.90;;;;;;5068234;28;20029;-83
2021/12/16 16:59:53;;;;;;;1.48;0.50;;;7.00;99.90;;;;;;5067309;28;20545;-81
2021/12/16 17:02:31;;;;;;;1.10;0.68;;;6.80;99.90;;;;;;5069773;28;20229;-82
2021/12/16 17:05:01;;;;;;;2.42;0.88;;;6.70;99.90;;;;;;5069257;28;20448;-82
2021/12/16 17:07:52;;;;;;;1.67;0.70;;;6.80;99.90;;;;;;5069579;28;20407;-81
2021/12/16 17:10:45;;;;;;;2.97;0.38;;;7.10;99.90;;;;;;5058614;28;20033;-82
2021/12/16 17:13:35;;;;;;;2.35;0.68;;;7.30;99.90;;;;;;5063249;28;20040;-83
2021/12/16 17:18:34;;;;;;;1.88;1.05;;;6.70;99.90;;;;;;5070817;28;20052;-83
2021/12/16 17:21:12;;;;;;;0.82;0.40;;;6.70;99.90;;;;;;5073613;28;20059;-82
2021/12/16 17:23:41;;;;;;;1.45;0.60;;;6.70;99.90;;;;;;5057961;28;20144;-81
2021/12/16 17:26:38;;;;;;;2.85;1.25;;;6.60;99.90;;;;;;5067112;28;20072;-82
2021/12/16 17:29:08;;;;;;;;;;;6.60;99.90;;;;;;5067807;28;20075;-82
2021/12/16 17:31:36;;;;;;;1.38;0.60;;;6.60;99.90;;;;;;5068233;28;19912;-82
2021/12/16 17:34:30;;;;;;;2.47;0.70;;;6.50;99.90;;;;;;5070539;28;20036;-81
2021/12/16 17:37:02;;;;;;;0.73;0.47;;;6.50;99.90;;;;;;5049633;28;20039;-81
2021/12/16 17:39:37;;;;;;;1.00;0.70;;;6.40;99.90;;;;;;5048975;28;20438;-82
2021/12/16 17:42:32;;;;;;;8.50;2.85;;;6.40;99.90;;;;;;5043690;28;20033;-82
2021/12/16 17:45:04;;;;;;;1.17;0.55;;;6.30;99.90;;;;;;5003542;28;20037;-83
2021/12/16 17:47:33;;;;;;;1.65;0.70;;;6.30;99.90;;;;;;5047935;28;20032;-82
2021/12/16 17:49:59;;;;;;;2.10;0.85;;;6.40;99.90;;;;;;5050530;28;20071;-83
2021/12/16 17:52:39;;;;;;;1.00;0.60;;;6.30;99.90;;;;;;5050064;28;20356;-82
2021/12/16 17:55:12;;;;;;;1.00;0.70;;;6.30;99.90;;;;;;5058301;28;20024;-81
2021/12/16 17:57:44;;;;;;;2.08;0.93;;;6.30;99.90;;;;;;5071673;28;20028;-83
2021/12/16 18:00:56;;;;;;;1.65;0.70;;;6.30;99.90;;;;;;5064333;28;20407;-84
2021/12/16 18:03:27;;;;;;;1.52;0.70;;;6.30;99.90;;;;;;5025998;28;20503;-84
2021/12/16 18:06:04;;;;;;;0.85;0.52;;;6.30;99.90;;;;;;5036888;28;20067;-84
2021/12/16 18:08:34;;;;;;;3.53;1.55;;;6.30;99.90;;;;;;5044604;28;20029;-84
2021/12/16 18:11:09;;;;;;;2.70;0.85;;;6.30;99.90;;;;;;5049877;28;20092;-82
2021/12/16 18:13:41;;;;;;;1.75;0.60;;;6.20;99.90;;;;;;5065502;28;20051;-82
2021/12/16 18:16:13;;;;;;;2.17;1.00;;;6.20;99.90;;;;;;5062669;28;20035;-82
2021/12/16 18:18:39;;;;;;;1.13;0.73;;;6.20;99.90;;;;;;5069684;28;20059;-82
2021/12/16 18:21:05;;;;;;;2.20;0.60;;;6.10;99.90;;;;;;5069180;28;20078;-81
2021/12/16 18:23:34;;;;;;;1.27;0.70;;;6.10;99.90;;;;;;5050970;28;20036;-81
2021/12/16 18:26:04;;;;;;;1.75;0.77;;;6.10;99.90;;;;;;5054946;28;20495;-82
2021/12/16 18:28:50;;;;;;;1.25;0.65;;;6.10;99.90;;;;;;5065667;28;20033;-84
2021/12/16 18:31:28;;;;;;;1.23;0.80;;;6.10;99.90;;;;;;5057501;28;20501;-81
2021/12/16 18:33:58;;;;;;;2.90;1.40;;;6.10;99.90;;;;;;5058524;28;20021;-82
2021/12/16 18:36:35;;;;;;;1.33;0.73;;;6.10;99.90;;;;;;5065372;28;20507;-81
2021/12/16 18:39:21;;;;;;;1.80;0.68;;;6.10;99.90;;;;;;5058351;28;20029;-81
2021/12/16 18:42:21;;;;;;;1.00;0.47;;;6.00;99.90;;;;;;5049840;28;20021;-80